Time;durP1;ratioP1;P1;durP2;ratioP2;P2;SDS_P1;SDS_P2;PMS_P1;PMS_P2;Temp;Humidity;BMP_temperature;BMP_pressure;BME280_temperature;BME280_humidity;BME280_pressure;Samples;Min_cycle;Max_cycle;Signal;HPM_P1;HPM_P2
2022/08/01 00:00:28;;;;;;;1.48;1.38;;;16.80;99.90;;;;;;4997479;28;20186;-92
2022/08/01 00:02:53;;;;;;;1.77;1.20;;;16.80;99.90;;;;;;4997674;28;20213;-93
2022/08/01 00:05:19;;;;;;;1.90;1.08;;;16.80;99.90;;;;;;5008746;28;20196;-92
2022/08/01 00:07:45;;;;;;;1.33;1.13;;;16.90;99.90;;;;;;4989290;28;20194;-92
2022/08/01 00:10:13;;;;;;;1.77;1.13;;;16.80;99.90;;;;;;5000313;28;20185;-91
2022/08/01 00:12:40;;;;;;;1.60;1.10;;;16.80;99.90;;;;;;5017029;28;20165;-90
2022/08/01 00:15:08;;;;;;;1.65;1.25;;;16.80;99.90;;;;;;5015765;28;20196;-90
2022/08/01 00:17:34;;;;;;;1.55;1.30;;;16.80;99.90;;;;;;5036756;28;20169;-90
2022/08/01 00:20:00;;;;;;;1.38;1.20;;;16.60;99.90;;;;;;5004398;28;20181;-91
2022/08/01 00:22:26;;;;;;;1.55;1.45;;;16.70;99.90;;;;;;5018798;28;20201;-92
2022/08/01 00:24:51;;;;;;;3.05;1.75;;;16.60;99.90;;;;;;5015828;28;20173;-86
2022/08/01 00:27:17;;;;;;;4.75;2.50;;;16.60;99.90;;;;;;5018855;28;20181;-91
2022/08/01 00:29:43;;;;;;;2.35;1.42;;;16.60;99.90;;;;;;5002828;28;20166;-89
2022/08/01 00:32:08;;;;;;;2.75;1.98;;;16.40;99.90;;;;;;5002609;28;20169;-91
2022/08/01 00:34:35;;;;;;;3.65;1.60;;;16.50;99.90;;;;;;5005877;28;20216;-93
2022/08/01 00:37:00;;;;;;;3.67;2.00;;;16.40;99.90;;;;;;5019308;28;20161;-92
2022/08/01 00:39:26;;;;;;;2.35;2.10;;;16.40;99.90;;;;;;5027145;28;20178;-91
2022/08/01 00:41:52;;;;;;;2.65;2.00;;;16.40;99.90;;;;;;5015057;28;20212;-93
2022/08/01 00:44:17;;;;;;;2.08;1.52;;;16.40;99.90;;;;;;5002176;28;20326;-92
2022/08/01 00:46:43;;;;;;;2.42;1.65;;;16.40;99.90;;;;;;4990141;28;20215;-92
2022/08/01 00:49:08;;;;;;;5.78;2.20;;;16.30;99.90;;;;;;5011004;28;20648;-92
2022/08/01 00:51:34;;;;;;;3.15;1.80;;;16.30;99.90;;;;;;5001016;28;20193;-93
2022/08/01 00:54:00;;;;;;;2.95;1.67;;;16.20;99.90;;;;;;4985816;28;20186;-92
2022/08/01 00:56:27;;;;;;;2.05;1.30;;;16.20;99.90;;;;;;5017170;28;20193;-93
2022/08/01 00:58:54;;;;;;;2.90;1.92;;;16.10;99.90;;;;;;4986684;28;20220;-93
2022/08/01 01:01:21;;;;;;;2.65;1.88;;;16.10;99.90;;;;;;4984550;28;20188;-93
2022/08/01 01:03:51;;;;;;;1.70;1.50;;;16.00;99.90;;;;;;5006407;28;20181;-94
2022/08/01 01:06:53;;;;;;;2.13;1.67;;;16.00;99.90;;;;;;4996551;28;20193;-94
2022/08/01 01:09:31;;;;;;;1.55;1.35;;;16.00;99.90;;;;;;5007651;28;20170;-95
2022/08/01 01:12:28;;;;;;;2.70;1.55;;;16.00;99.90;;;;;;5022552;28;20158;-92
2022/08/01 01:15:16;;;;;;;4.88;2.00;;;16.00;99.90;;;;;;5008112;28;20166;-93
2022/08/01 01:17:51;;;;;;;2.47;1.60;;;16.00;99.90;;;;;;5028944;28;20204;-92
2022/08/01 01:20:18;;;;;;;2.45;1.33;;;16.00;99.90;;;;;;5013433;28;20150;-95
2022/08/01 01:23:05;;;;;;;2.00;1.30;;;15.90;99.90;;;;;;5006415;28;20206;-93
2022/08/01 01:26:15;;;;;;;1.67;1.00;;;15.90;99.90;;;;;;5011152;28;20185;-93
2022/08/01 01:29:03;;;;;;;1.80;0.80;;;15.90;99.90;;;;;;5014028;28;20170;-95
2022/08/01 01:31:35;;;;;;;2.13;1.05;;;15.90;99.90;;;;;;4988100;28;20192;-95
2022/08/01 01:34:04;;;;;;;2.67;1.45;;;15.90;99.90;;;;;;5021925;28;20653;-94
2022/08/01 01:36:32;;;;;;;1.20;1.10;;;15.90;99.90;;;;;;5005218;28;20663;-93
2022/08/01 01:38:58;;;;;;;1.55;1.00;;;15.90;99.90;;;;;;5004213;28;20635;-94
2022/08/01 01:41:25;;;;;;;0.95;0.95;;;15.90;99.90;;;;;;5002578;28;20182;-94
2022/08/01 01:43:52;;;;;;;2.13;1.38;;;15.90;99.90;;;;;;4998914;28;20226;-92
2022/08/01 01:46:22;;;;;;;1.08;0.85;;;15.90;99.90;;;;;;5011381;28;20190;-95
2022/08/01 01:48:49;;;;;;;0.95;0.80;;;15.90;99.90;;;;;;5005250;28;20205;-93
2022/08/01 01:51:16;;;;;;;0.82;0.68;;;15.90;99.90;;;;;;4997786;28;20188;-92
2022/08/01 01:53:43;;;;;;;1.17;0.98;;;15.90;99.90;;;;;;5003550;28;20166;-93
2022/08/01 01:56:09;;;;;;;1.65;1.10;;;16.00;99.90;;;;;;5028520;28;20193;-92
2022/08/01 01:58:39;;;;;;;1.95;0.95;;;15.90;99.90;;;;;;5008376;28;20184;-91
2022/08/01 02:01:06;;;;;;;1.20;1.10;;;15.90;99.90;;;;;;5023702;28;20161;-90
2022/08/01 02:03:36;;;;;;;4.55;0.98;;;15.90;99.90;;;;;;5037693;28;20212;-93
2022/08/01 02:06:03;;;;;;;1.50;1.23;;;15.90;99.90;;;;;;5028137;28;20197;-91
2022/08/01 02:08:30;;;;;;;1.23;1.10;;;15.90;99.90;;;;;;5018278;28;20181;-93
2022/08/01 02:13:43;;;;;;;1.40;1.13;;;15.90;99.90;;;;;;5018785;28;20189;-92
2022/08/01 02:16:11;;;;;;;1.02;0.95;;;15.90;99.90;;;;;;5017233;28;20193;-95
2022/08/01 02:18:37;;;;;;;1.13;0.82;;;15.90;99.90;;;;;;5006192;28;20193;-94
2022/08/01 02:21:08;;;;;;;3.03;1.20;;;15.90;99.90;;;;;;4995071;28;20198;-94
2022/08/01 02:23:36;;;;;;;1.30;0.90;;;15.90;99.90;;;;;;5003323;28;20205;-93
2022/08/01 02:26:09;;;;;;;0.95;0.93;;;15.90;99.90;;;;;;4993278;28;20186;-94
2022/08/01 02:28:42;;;;;;;1.30;1.05;;;15.90;99.90;;;;;;4998879;28;20186;-94
2022/08/01 02:31:14;;;;;;;1.52;1.25;;;15.90;99.90;;;;;;4997516;28;20181;-94
2022/08/01 02:33:44;;;;;;;2.28;1.40;;;15.90;99.90;;;;;;5001831;28;20704;-93
2022/08/01 02:36:12;;;;;;;1.85;1.52;;;15.90;99.90;;;;;;4997537;28;20240;-93
2022/08/01 02:38:42;;;;;;;2.10;1.40;;;15.90;99.90;;;;;;5016758;28;20193;-93
2022/08/01 02:41:13;;;;;;;1.42;1.33;;;15.80;99.90;;;;;;5007101;28;20233;-91
2022/08/01 02:43:43;;;;;;;2.80;1.63;;;15.90;99.90;;;;;;5008294;28;20237;-95
2022/08/01 02:46:15;;;;;;;2.13;1.48;;;15.80;99.90;;;;;;5014596;28;20199;-94
2022/08/01 02:48:43;;;;;;;3.70;1.65;;;15.80;99.90;;;;;;5017601;28;20178;-95
2022/08/01 02:51:11;;;;;;;2.35;1.73;;;15.80;99.90;;;;;;5000867;28;20181;-93
2022/08/01 02:53:39;;;;;;;3.22;2.15;;;15.80;99.90;;;;;;5000545;28;20192;-94
2022/08/01 02:56:06;;;;;;;3.22;2.20;;;15.70;99.90;;;;;;4998148;28;20181;-95
2022/08/01 02:58:35;;;;;;;6.75;4.00;;;15.70;99.90;;;;;;4999018;28;20213;-94
2022/08/01 03:01:02;;;;;;;1.83;1.73;;;15.70;99.90;;;;;;5016971;28;20669;-94
2022/08/01 03:03:29;;;;;;;3.13;1.60;;;15.70;99.90;;;;;;5015921;28;20213;-94
2022/08/01 03:05:56;;;;;;;2.10;1.90;;;15.60;99.90;;;;;;5012305;28;20313;-95
2022/08/01 03:08:23;;;;;;;3.65;1.95;;;15.60;99.90;;;;;;4972280;28;20191;-94
2022/08/01 03:10:51;;;;;;;3.60;2.05;;;15.60;99.90;;;;;;4997018;28;20200;-94
2022/08/01 03:13:17;;;;;;;2.40;1.67;;;15.50;99.90;;;;;;4998129;28;20650;-93
2022/08/01 03:15:44;;;;;;;3.47;2.38;;;15.60;99.90;;;;;;5012340;28;20188;-94
2022/08/01 03:18:11;;;;;;;3.40;2.17;;;15.60;99.90;;;;;;4980028;28;20268;-95
2022/08/01 03:20:37;;;;;;;5.35;2.67;;;15.60;99.90;;;;;;4998314;28;20174;-94
2022/08/01 03:23:07;;;;;;;3.53;2.70;;;15.50;99.90;;;;;;4997554;28;20568;-94
2022/08/01 03:25:34;;;;;;;4.70;1.80;;;15.50;99.90;;;;;;4989135;28;20190;-95
2022/08/01 03:28:03;;;;;;;2.05;1.85;;;15.40;99.90;;;;;;5007853;28;20696;-92
2022/08/01 03:30:30;;;;;;;3.65;1.33;;;15.40;99.90;;;;;;5002989;28;20213;-93
2022/08/01 03:32:56;;;;;;;4.63;2.05;;;15.30;99.90;;;;;;4999723;28;20232;-94
2022/08/01 03:35:28;;;;;;;2.90;1.70;;;15.40;99.90;;;;;;5001831;28;20229;-94
2022/08/01 03:37:56;;;;;;;2.45;1.60;;;15.40;99.90;;;;;;4989639;28;20170;-93
2022/08/01 03:40:25;;;;;;;1.45;1.35;;;15.40;99.90;;;;;;4985608;28;20189;-91
2022/08/01 03:42:58;;;;;;;1.98;1.40;;;15.40;99.90;;;;;;5019621;28;20178;-90
2022/08/01 03:45:28;;;;;;;1.52;1.42;;;15.40;99.90;;;;;;5013878;28;20177;-89
2022/08/01 03:48:14;;;;;;;1.55;1.15;;;15.40;99.90;;;;;;5006730;28;20517;-88
2022/08/01 03:50:45;;;;;;;2.38;1.38;;;15.40;99.90;;;;;;4996326;28;20169;-92
2022/08/01 03:53:12;;;;;;;1.38;1.20;;;15.40;99.90;;;;;;4994969;28;20297;-92
2022/08/01 03:55:40;;;;;;;2.50;1.67;;;15.50;99.90;;;;;;4997978;28;20254;-92
2022/08/01 03:58:07;;;;;;;1.48;1.17;;;15.40;99.90;;;;;;5004183;28;20202;-93
2022/08/01 04:00:35;;;;;;;4.65;2.13;;;15.40;99.90;;;;;;5005794;28;20178;-93
2022/08/01 04:03:01;;;;;;;2.75;1.88;;;15.40;99.90;;;;;;4995877;28;20212;-92
2022/08/01 04:05:26;;;;;;;3.47;2.05;;;15.50;99.90;;;;;;4977687;28;20276;-93
2022/08/01 04:07:59;;;;;;;1.73;1.50;;;15.50;99.90;;;;;;4978490;28;20628;-94
2022/08/01 04:10:25;;;;;;;2.90;2.03;;;15.40;99.90;;;;;;4977490;28;20253;-92
2022/08/01 04:12:51;;;;;;;2.50;1.92;;;15.40;99.90;;;;;;4995610;28;20177;-93
2022/08/01 04:15:18;;;;;;;2.90;2.10;;;15.50;99.90;;;;;;4977749;28;20186;-93
2022/08/01 04:17:43;;;;;;;2.15;1.95;;;15.50;99.90;;;;;;4995011;28;20178;-92
2022/08/01 04:20:10;;;;;;;2.03;1.75;;;15.40;99.90;;;;;;4994692;28;20273;-93
2022/08/01 04:22:37;;;;;;;2.40;1.80;;;15.50;99.90;;;;;;4978301;28;20232;-93
2022/08/01 04:25:09;;;;;;;2.58;1.63;;;15.40;99.90;;;;;;4994881;28;20185;-93
2022/08/01 04:27:38;;;;;;;1.90;1.63;;;15.50;99.90;;;;;;4994486;28;21037;-93
2022/08/01 04:30:05;;;;;;;1.52;1.40;;;15.50;99.90;;;;;;4994763;28;20178;-93
2022/08/01 04:32:34;;;;;;;2.15;1.92;;;15.50;99.90;;;;;;4994418;28;20214;-93
2022/08/01 04:35:04;;;;;;;1.95;1.50;;;15.50;99.90;;;;;;4995941;28;20233;-93
2022/08/01 04:37:31;;;;;;;2.63;1.95;;;15.50;99.90;;;;;;4995587;28;20178;-93
2022/08/01 04:39:58;;;;;;;2.90;1.73;;;15.50;99.90;;;;;;4995223;28;20188;-93
2022/08/01 04:42:23;;;;;;;2.22;1.77;;;15.40;99.90;;;;;;4998385;28;20296;-94
2022/08/01 04:44:49;;;;;;;2.17;1.88;;;15.40;99.90;;;;;;4996765;28;20603;-94
2022/08/01 04:47:15;;;;;;;3.28;2.10;;;15.40;99.90;;;;;;4977726;28;20177;-93
2022/08/01 04:49:41;;;;;;;3.55;2.42;;;15.40;99.90;;;;;;4977846;28;20220;-94
2022/08/01 04:52:07;;;;;;;2.42;1.65;;;15.40;99.90;;;;;;4994046;28;20306;-93
2022/08/01 04:54:38;;;;;;;2.28;1.80;;;15.40;99.90;;;;;;4977470;28;20186;-93
2022/08/01 04:57:05;;;;;;;1.65;1.52;;;15.40;99.90;;;;;;4994948;28;20184;-95
2022/08/01 04:59:41;;;;;;;2.92;1.80;;;15.40;99.90;;;;;;4994116;28;20189;-92
2022/08/01 05:02:15;;;;;;;4.55;2.40;;;15.50;99.90;;;;;;4994741;28;20224;-95
2022/08/01 05:04:42;;;;;;;2.67;2.15;;;15.40;99.90;;;;;;4998186;28;20181;-92
2022/08/01 05:07:09;;;;;;;1.73;1.60;;;15.40;99.90;;;;;;4998681;28;20196;-93
2022/08/01 05:09:38;;;;;;;3.65;2.00;;;15.40;99.90;;;;;;4980821;28;20181;-93
2022/08/01 05:12:05;;;;;;;3.45;2.65;;;15.40;99.90;;;;;;4980887;28;20182;-92
2022/08/01 05:14:31;;;;;;;3.85;2.50;;;15.40;99.90;;;;;;4998057;28;20232;-92
2022/08/01 05:17:03;;;;;;;3.05;2.03;;;15.40;99.90;;;;;;4998172;28;20181;-92
2022/08/01 05:19:33;;;;;;;3.40;2.40;;;15.50;99.90;;;;;;4997577;28;20178;-94
2022/08/01 05:22:00;;;;;;;3.95;2.47;;;15.50;99.90;;;;;;4997481;28;20202;-93
2022/08/01 05:24:28;;;;;;;3.35;2.25;;;15.50;99.90;;;;;;4980486;28;20192;-92
2022/08/01 05:26:57;;;;;;;2.97;2.10;;;15.40;99.90;;;;;;4980570;28;20182;-93
2022/08/01 05:29:23;;;;;;;3.35;2.75;;;15.50;99.90;;;;;;4997580;28;20193;-91
2022/08/01 05:31:49;;;;;;;6.40;2.58;;;15.50;99.90;;;;;;4979781;28;20182;-91
2022/08/01 05:34:15;;;;;;;3.00;2.05;;;15.50;99.90;;;;;;4997434;28;20229;-90
2022/08/01 05:36:40;;;;;;;2.65;2.08;;;15.50;99.90;;;;;;4997526;28;20190;-93
2022/08/01 05:39:06;;;;;;;1.95;1.65;;;15.50;99.90;;;;;;4980228;28;20269;-92
2022/08/01 05:41:32;;;;;;;2.40;2.03;;;15.60;99.90;;;;;;4988082;28;20178;-90
2022/08/01 05:43:57;;;;;;;2.53;2.05;;;15.60;99.90;;;;;;5006702;28;20178;-89
2022/08/01 05:46:23;;;;;;;2.20;1.90;;;15.60;99.90;;;;;;4998099;28;20182;-89
2022/08/01 05:48:49;;;;;;;2.15;1.90;;;15.60;99.90;;;;;;4997015;28;20177;-92
2022/08/01 05:51:14;;;;;;;2.55;2.05;;;15.70;99.90;;;;;;5006146;28;20185;-89
2022/08/01 05:53:40;;;;;;;2.47;2.17;;;15.70;99.90;;;;;;5009545;28;20280;-87
2022/08/01 05:56:05;;;;;;;4.47;2.70;;;15.70;99.90;;;;;;4999092;28;20181;-90
2022/08/01 05:58:31;;;;;;;3.17;2.20;;;15.70;99.90;;;;;;4997082;28;20578;-91
2022/08/01 06:00:57;;;;;;;3.05;2.65;;;15.70;99.90;;;;;;4964068;28;20193;-91
2022/08/01 06:03:23;;;;;;;6.28;3.20;;;15.80;99.90;;;;;;4997081;28;20721;-90
2022/08/01 06:05:50;;;;;;;3.63;2.38;;;15.70;99.90;;;;;;4996377;28;20189;-91
2022/08/01 06:08:16;;;;;;;4.68;3.30;;;15.70;99.90;;;;;;4996570;28;20202;-91
2022/08/01 06:10:42;;;;;;;3.70;3.00;;;15.70;99.90;;;;;;4996162;28;20185;-90
2022/08/01 06:13:08;;;;;;;4.70;3.08;;;15.70;99.90;;;;;;4979109;28;20714;-90
2022/08/01 06:15:33;;;;;;;5.25;3.35;;;15.80;99.90;;;;;;4963384;28;20217;-90
2022/08/01 06:17:59;;;;;;;4.78;3.33;;;15.80;99.90;;;;;;4996091;28;20182;-90
2022/08/01 06:20:25;;;;;;;6.22;3.90;;;15.80;99.90;;;;;;4996196;28;20197;-90
2022/08/01 06:22:54;;;;;;;12.05;5.03;;;15.80;99.90;;;;;;4998662;28;20241;-89
2022/08/01 06:25:20;;;;;;;9.55;6.10;;;15.90;99.90;;;;;;5003580;28;20174;-89
2022/08/01 06:27:45;;;;;;;9.90;6.25;;;15.80;99.90;;;;;;4985906;28;20644;-90
2022/08/01 06:30:11;;;;;;;8.43;5.45;;;15.80;99.90;;;;;;5006093;28;20182;-90
2022/08/01 06:32:37;;;;;;;15.38;7.25;;;15.90;99.90;;;;;;5004377;28;20557;-89
2022/08/01 06:35:03;;;;;;;13.18;7.03;;;15.90;99.90;;;;;;4986768;28;20225;-90
2022/08/01 06:37:30;;;;;;;9.07;5.20;;;15.80;99.90;;;;;;5003787;28;20182;-89
2022/08/01 06:39:56;;;;;;;10.45;6.13;;;15.80;99.90;;;;;;5004429;28;20509;-91
2022/08/01 06:42:21;;;;;;;8.07;4.78;;;15.80;99.90;;;;;;4987491;28;20272;-90
2022/08/01 06:44:47;;;;;;;6.20;4.65;;;15.80;99.90;;;;;;5003198;28;20190;-90
2022/08/01 06:47:12;;;;;;;7.93;5.15;;;15.70;99.90;;;;;;4987545;28;20641;-91
2022/08/01 06:49:38;;;;;;;7.45;4.50;;;15.80;99.90;;;;;;4986874;28;20232;-91
2022/08/01 06:52:04;;;;;;;9.75;5.28;;;15.90;99.90;;;;;;5002773;28;20554;-90
2022/08/01 06:54:29;;;;;;;5.85;4.00;;;15.80;99.90;;;;;;4978595;28;20178;-88
2022/08/01 06:56:55;;;;;;;6.85;4.97;;;16.00;99.90;;;;;;4996117;28;20577;-91
2022/08/01 06:59:20;;;;;;;4.45;3.45;;;16.00;99.90;;;;;;5003113;28;20197;-91
2022/08/01 07:01:46;;;;;;;4.22;3.17;;;16.10;99.90;;;;;;5006625;28;20257;-89
2022/08/01 07:04:11;;;;;;;5.28;3.25;;;16.10;99.90;;;;;;4991651;28;20190;-90
2022/08/01 07:06:37;;;;;;;5.28;3.38;;;16.20;99.90;;;;;;4981072;28;20189;-87
2022/08/01 07:09:03;;;;;;;9.38;3.78;;;16.30;99.90;;;;;;5014952;28;20561;-90
2022/08/01 07:11:29;;;;;;;5.32;3.38;;;16.40;99.90;;;;;;5015035;28;20185;-90
2022/08/01 07:13:54;;;;;;;5.45;3.95;;;16.40;99.90;;;;;;4997223;28;20332;-92
2022/08/01 07:16:21;;;;;;;7.25;3.88;;;16.50;99.90;;;;;;5014678;28;20187;-89
2022/08/01 07:18:47;;;;;;;4.80;3.17;;;16.50;99.90;;;;;;5014340;28;20181;-89
2022/08/01 07:21:13;;;;;;;3.22;2.50;;;16.50;99.90;;;;;;4980761;28;20669;-88
2022/08/01 07:23:38;;;;;;;4.75;3.33;;;16.60;99.90;;;;;;5014162;28;20201;-88
2022/08/01 07:26:04;;;;;;;7.22;3.70;;;16.60;99.90;;;;;;5013693;28;20654;-89
2022/08/01 07:28:30;;;;;;;4.63;2.70;;;16.70;99.90;;;;;;4997407;28;20181;-92
2022/08/01 07:30:56;;;;;;;4.70;3.22;;;16.70;99.90;;;;;;4997312;28;20248;-91
2022/08/01 07:33:22;;;;;;;3.25;2.53;;;16.80;99.90;;;;;;4997563;28;20236;-90
2022/08/01 07:35:48;;;;;;;2.33;1.55;;;16.90;99.90;;;;;;5016294;28;20174;-90
2022/08/01 07:38:16;;;;;;;7.43;2.67;;;16.90;99.90;;;;;;4997513;28;20237;-90
2022/08/01 07:40:42;;;;;;;3.95;2.53;;;17.00;99.90;;;;;;4997077;28;20189;-89
2022/08/01 07:43:08;;;;;;;3.05;2.15;;;17.00;99.90;;;;;;5014840;28;20201;-89
2022/08/01 07:45:34;;;;;;;7.35;2.10;;;17.00;99.90;;;;;;5014831;28;20273;-88
2022/08/01 07:48:04;;;;;;;2.75;1.95;;;17.10;99.90;;;;;;5015358;28;20204;-90
2022/08/01 07:50:30;;;;;;;2.60;2.20;;;17.20;99.90;;;;;;5015965;28;20177;-91
2022/08/01 07:52:55;;;;;;;3.05;1.95;;;17.30;99.90;;;;;;5014532;28;20190;-90
2022/08/01 07:55:21;;;;;;;3.78;1.70;;;17.40;99.90;;;;;;5015635;28;20212;-89
2022/08/01 07:57:46;;;;;;;2.97;2.15;;;17.50;99.90;;;;;;4996840;28;20545;-89
2022/08/01 08:00:13;;;;;;;2.10;1.63;;;17.50;99.90;;;;;;4997444;28;20185;-90
2022/08/01 08:02:39;;;;;;;1.75;1.42;;;17.60;99.90;;;;;;5015073;28;20204;-91
2022/08/01 08:05:06;;;;;;;5.72;2.22;;;17.60;99.90;;;;;;5014643;28;20185;-92
2022/08/01 08:07:31;;;;;;;4.70;1.80;;;17.70;99.90;;;;;;5014974;28;20215;-88
2022/08/01 08:09:57;;;;;;;2.90;1.90;;;17.70;99.90;;;;;;5014353;28;20209;-87
2022/08/01 08:12:23;;;;;;;1.83;1.73;;;17.90;99.90;;;;;;5014278;28;20351;-87
2022/08/01 08:14:49;;;;;;;1.45;1.35;;;18.00;99.90;;;;;;5014347;28;20193;-88
2022/08/01 08:17:14;;;;;;;2.13;1.73;;;18.10;99.90;;;;;;5014516;28;20206;-88
2022/08/01 08:19:40;;;;;;;2.97;2.08;;;18.20;99.90;;;;;;5014425;28;20252;-89
2022/08/01 08:22:07;;;;;;;4.60;2.70;;;18.40;99.90;;;;;;4996696;28;20205;-88
2022/08/01 08:24:34;;;;;;;2.97;2.22;;;18.50;99.90;;;;;;5014070;28;20186;-88
2022/08/01 08:27:01;;;;;;;3.05;2.58;;;18.70;99.90;;;;;;4980622;28;20560;-89
2022/08/01 08:29:29;;;;;;;3.35;2.65;;;18.80;99.90;;;;;;4987287;28;20178;-88
2022/08/01 08:31:55;;;;;;;3.85;2.17;;;19.10;99.90;;;;;;5005976;28;20177;-88
2022/08/01 08:34:21;;;;;;;1.80;1.67;;;19.30;99.90;;;;;;5024587;28;20292;-87
2022/08/01 08:36:50;;;;;;;1.70;1.60;;;19.60;99.90;;;;;;5010153;28;20279;-87
2022/08/01 08:39:16;;;;;;;1.42;1.10;;;19.90;99.90;;;;;;5016599;28;20264;-87
2022/08/01 08:41:42;;;;;;;1.25;0.90;;;20.20;99.90;;;;;;5014361;28;20285;-87
2022/08/01 08:44:09;;;;;;;1.20;1.10;;;20.40;99.90;;;;;;5013971;28;20267;-87
2022/08/01 08:46:41;;;;;;;1.83;1.45;;;20.60;99.90;;;;;;5014571;28;20192;-87
2022/08/01 08:49:07;;;;;;;3.20;2.47;;;20.60;99.90;;;;;;5014168;28;20188;-89
2022/08/01 08:51:37;;;;;;;4.15;2.85;;;20.60;99.90;;;;;;5014285;28;20188;-88
2022/08/01 08:54:03;;;;;;;2.33;1.98;;;20.50;99.90;;;;;;4996553;28;20244;-87
2022/08/01 08:56:33;;;;;;;3.47;1.42;;;20.30;99.90;;;;;;4997002;28;20650;-88
2022/08/01 08:59:00;;;;;;;1.70;1.30;;;20.40;99.90;;;;;;4996721;28;20182;-88
2022/08/01 09:01:26;;;;;;;3.58;1.98;;;20.40;99.90;;;;;;5013772;28;20197;-87
2022/08/01 09:03:53;;;;;;;1.17;1.08;;;20.50;99.90;;;;;;5011446;28;20267;-88
2022/08/01 09:06:19;;;;;;;2.03;1.67;;;20.40;99.90;;;;;;5014549;28;20208;-87
2022/08/01 09:08:44;;;;;;;1.23;1.13;;;20.20;99.90;;;;;;5013881;28;20212;-89
2022/08/01 09:11:10;;;;;;;1.20;1.10;;;20.10;99.90;;;;;;4995986;28;20177;-88
2022/08/01 09:13:36;;;;;;;1.55;1.40;;;20.20;99.90;;;;;;5013964;28;20181;-86
2022/08/01 09:16:01;;;;;;;1.00;1.00;;;20.20;99.90;;;;;;4996611;28;20181;-86
2022/08/01 09:18:33;;;;;;;3.05;2.08;;;20.20;99.90;;;;;;5013915;28;20260;-86
2022/08/01 09:21:21;;;;;;;2.08;1.80;;;20.20;99.90;;;;;;5012389;28;20597;-86
2022/08/01 09:23:49;;;;;;;3.90;1.67;;;20.20;99.90;;;;;;4996002;28;20212;-88
2022/08/01 09:26:18;;;;;;;2.55;2.10;;;20.30;99.90;;;;;;5014104;28;20177;-87
2022/08/01 09:28:44;;;;;;;2.55;1.70;;;20.50;99.90;;;;;;5014340;28;20272;-89
2022/08/01 09:31:16;;;;;;;3.13;2.83;;;20.70;99.90;;;;;;5013462;28;20228;-87
2022/08/01 09:34:03;;;;;;;1.20;1.10;;;20.80;99.90;;;;;;4996178;28;20237;-88
2022/08/01 09:36:53;;;;;;;1.00;0.93;;;22.00;99.90;;;;;;5013451;28;20180;-88
2022/08/01 09:39:20;;;;;;;1.17;1.08;;;20.90;99.90;;;;;;5012869;28;20177;-87
2022/08/01 09:41:47;;;;;;;0.82;0.82;;;20.90;99.90;;;;;;5011968;28;20185;-88
2022/08/01 09:44:13;;;;;;;0.88;0.82;;;21.00;99.90;;;;;;5013809;28;20248;-89
2022/08/01 09:46:50;;;;;;;1.00;0.90;;;21.10;99.90;;;;;;4995870;28;20181;-86
2022/08/01 09:49:36;;;;;;;1.45;1.00;;;21.30;99.90;;;;;;5013697;28;20231;-86
2022/08/01 09:52:19;;;;;;;1.75;1.20;;;21.50;99.90;;;;;;5017722;28;20260;-86
2022/08/01 09:54:54;;;;;;;2.08;1.20;;;21.70;99.90;;;;;;5008401;28;20165;-85
2022/08/01 09:57:21;;;;;;;1.23;1.10;;;21.90;99.90;;;;;;5012058;28;20181;-85
2022/08/01 09:59:48;;;;;;;2.88;1.25;;;22.00;99.90;;;;;;5028319;28;20176;-85
2022/08/01 10:02:32;;;;;;;2.58;1.45;;;22.10;99.90;;;;;;5024713;28;20212;-86
2022/08/01 10:04:58;;;;;;;1.45;1.33;;;22.00;99.90;;;;;;5016512;28;20173;-88
2022/08/01 10:07:24;;;;;;;1.02;1.00;;;22.20;99.90;;;;;;5016018;28;20207;-90
2022/08/01 10:09:50;;;;;;;1.58;1.20;;;22.30;99.90;;;;;;5016092;28;20698;-87
2022/08/01 10:12:26;;;;;;;1.67;1.35;;;22.40;99.90;;;;;;5015653;28;20189;-91
2022/08/01 10:14:54;;;;;;;1.80;1.23;;;22.50;99.90;;;;;;5016059;28;20166;-88
2022/08/01 10:17:21;;;;;;;2.90;1.35;;;22.40;99.90;;;;;;5015588;28;20184;-88
2022/08/01 10:19:50;;;;;;;1.35;1.25;;;22.30;99.90;;;;;;4998390;28;20186;-89
2022/08/01 10:22:17;;;;;;;1.33;1.10;;;22.30;99.90;;;;;;5014982;28;20204;-89
2022/08/01 10:24:46;;;;;;;1.42;1.13;;;22.20;99.90;;;;;;4998060;28;20660;-86
2022/08/01 10:27:14;;;;;;;2.50;1.33;;;22.40;99.90;;;;;;5015322;28;20201;-86
2022/08/01 10:30:07;;;;;;;1.70;1.10;;;22.50;99.90;;;;;;4998373;28;20181;-87
2022/08/01 10:32:37;;;;;;;0.70;0.70;;;22.90;99.90;;;;;;5015139;28;20621;-87
2022/08/01 10:35:07;;;;;;;1.23;0.73;;;23.00;99.90;;;;;;4998234;28;20275;-87
2022/08/01 10:37:35;;;;;;;1.00;0.90;;;22.90;99.90;;;;;;5015226;28;20665;-88
2022/08/01 10:40:01;;;;;;;1.40;1.30;;;22.90;99.90;;;;;;5015791;28;20715;-88
2022/08/01 10:42:28;;;;;;;2.22;1.63;;;22.70;99.90;;;;;;5014481;28;20220;-87
2022/08/01 10:44:55;;;;;;;1.05;0.98;;;22.80;99.90;;;;;;5015952;28;20615;-88
2022/08/01 10:47:27;;;;;;;1.00;0.90;;;22.90;99.90;;;;;;5014620;28;20551;-88
2022/08/01 10:50:11;;;;;;;1.17;1.00;;;23.20;99.90;;;;;;5015188;28;20170;-87
2022/08/01 10:52:37;;;;;;;2.10;0.85;;;23.20;99.90;;;;;;5015054;28;20200;-87
2022/08/01 10:55:09;;;;;;;0.80;0.80;;;23.50;99.90;;;;;;5015244;28;20228;-87
2022/08/01 10:57:47;;;;;;;1.10;1.00;;;23.60;99.90;;;;;;4998103;28;20332;-86
2022/08/01 11:00:20;;;;;;;0.70;0.70;;;23.60;99.90;;;;;;5015180;28;20173;-88
2022/08/01 11:03:01;;;;;;;1.15;1.05;;;23.60;99.90;;;;;;5014077;28;20670;-87
2022/08/01 11:05:30;;;;;;;0.80;0.68;;;23.40;99.90;;;;;;5014650;28;20185;-87
2022/08/01 11:08:01;;;;;;;0.98;0.88;;;23.50;99.90;;;;;;5015195;28;20173;-88
2022/08/01 11:10:45;;;;;;;2.05;1.10;;;23.70;99.90;;;;;;5014957;28;20170;-87
2022/08/01 11:13:11;;;;;;;1.52;1.23;;;23.90;99.90;;;;;;5014993;28;20181;-87
2022/08/01 11:15:38;;;;;;;1.23;1.13;;;24.00;99.90;;;;;;5014640;28;20535;-86
2022/08/01 11:18:26;;;;;;;1.02;0.98;;;24.00;99.90;;;;;;4997261;28;20184;-88
2022/08/01 11:21:01;;;;;;;1.98;1.13;;;23.80;99.90;;;;;;5013404;28;20545;-86
2022/08/01 11:23:28;;;;;;;1.23;1.05;;;23.90;99.90;;;;;;5014180;28;20196;-88
2022/08/01 11:25:54;;;;;;;1.15;0.98;;;24.00;99.90;;;;;;4996881;28;20268;-87
2022/08/01 11:28:24;;;;;;;0.82;0.80;;;24.20;99.90;;;;;;5014998;28;20204;-85
2022/08/01 11:30:54;;;;;;;1.10;1.00;;;24.00;99.90;;;;;;5014196;28;20177;-87
2022/08/01 11:33:42;;;;;;;1.10;0.95;;;23.70;99.90;;;;;;5014431;28;20181;-87
2022/08/01 11:36:11;;;;;;;1.45;1.10;;;23.40;99.90;;;;;;5012903;28;20541;-86
2022/08/01 11:38:39;;;;;;;1.42;1.25;;;23.40;99.90;;;;;;5012691;28;20177;-87
2022/08/01 11:41:26;;;;;;;1.13;1.02;;;23.50;99.90;;;;;;5014647;28;20236;-87
2022/08/01 11:44:02;;;;;;;1.08;0.98;;;23.90;99.90;;;;;;5014243;28;20267;-88
2022/08/01 11:46:46;;;;;;;0.90;0.90;;;24.00;99.90;;;;;;5014690;28;20184;-87
2022/08/01 11:49:36;;;;;;;0.70;0.70;;;24.20;99.90;;;;;;5012352;28;20185;-87
2022/08/01 11:52:25;;;;;;;1.50;1.10;;;24.30;99.90;;;;;;5013690;28;20169;-89
2022/08/01 11:54:57;;;;;;;0.80;0.80;;;24.40;99.90;;;;;;5012584;28;20177;-87
2022/08/01 11:57:23;;;;;;;2.65;0.80;;;24.40;99.90;;;;;;5014047;28;20622;-86
2022/08/01 11:59:54;;;;;;;2.05;1.05;;;24.30;98.70;;;;;;5013623;28;20256;-87
2022/08/01 12:02:23;;;;;;;1.98;1.00;;;24.20;99.90;;;;;;5013877;28;20688;-87
2022/08/01 12:04:57;;;;;;;1.17;1.08;;;24.00;99.90;;;;;;5013506;28;20181;-87
2022/08/01 12:07:25;;;;;;;1.90;1.05;;;24.20;99.90;;;;;;5013887;28;20164;-88
2022/08/01 12:10:15;;;;;;;0.98;0.98;;;24.10;99.90;;;;;;5007599;28;20178;-87
2022/08/01 12:12:54;;;;;;;0.98;0.98;;;24.20;99.90;;;;;;4994370;28;20316;-87
2022/08/01 12:15:22;;;;;;;1.30;1.10;;;24.30;97.90;;;;;;4996159;28;20239;-88
2022/08/01 12:18:00;;;;;;;0.93;0.90;;;24.40;97.10;;;;;;5013041;28;20181;-86
2022/08/01 12:20:28;;;;;;;1.13;0.77;;;24.40;97.20;;;;;;5013979;28;20161;-88
2022/08/01 12:23:02;;;;;;;1.20;1.00;;;24.60;99.30;;;;;;5013455;28;20209;-87
2022/08/01 12:25:29;;;;;;;0.95;0.68;;;24.70;98.50;;;;;;4995816;28;20196;-89
2022/08/01 12:27:56;;;;;;;0.75;0.75;;;24.90;93.30;;;;;;5013834;28;20174;-89
2022/08/01 12:30:23;;;;;;;1.50;0.90;;;24.80;91.30;;;;;;4997695;28;20180;-87
2022/08/01 12:32:49;;;;;;;2.35;0.80;;;24.60;85.80;;;;;;5013134;28;20192;-87
2022/08/01 12:35:17;;;;;;;0.85;0.80;;;24.60;82.00;;;;;;4995474;28;20279;-88
2022/08/01 12:37:45;;;;;;;0.57;0.52;;;24.40;80.60;;;;;;5013036;28;20173;-89
2022/08/01 12:40:16;;;;;;;0.98;0.88;;;24.50;81.90;;;;;;5013457;28;20173;-89
2022/08/01 12:42:44;;;;;;;1.13;0.85;;;24.60;82.80;;;;;;4996318;28;20201;-89
2022/08/01 12:45:15;;;;;;;2.40;0.70;;;24.70;80.20;;;;;;5014297;28;20181;-89
2022/08/01 12:47:42;;;;;;;1.77;1.27;;;24.80;80.90;;;;;;5013736;28;20170;-87
2022/08/01 12:50:19;;;;;;;1.38;0.70;;;24.80;79.70;;;;;;5013629;28;20236;-87
2022/08/01 12:52:45;;;;;;;1.13;0.80;;;24.90;78.90;;;;;;5013257;28;20169;-87
2022/08/01 12:55:19;;;;;;;0.68;0.68;;;25.00;79.60;;;;;;5013542;28;20178;-87
2022/08/01 12:57:49;;;;;;;1.85;1.38;;;24.90;75.50;;;;;;5012775;28;20180;-87